Time;durP1;ratioP1;P1;durP2;ratioP2;P2;SDS_P1;SDS_P2;PMS_P1;PMS_P2;Temp;Humidity;BMP_temperature;BMP_pressure;BME280_temperature;BME280_humidity;BME280_pressure;Samples;Min_cycle;Max_cycle;Signal;HPM_P1;HPM_P2
2023/08/07 00:03:19;;;;;;;;;;;22.90;59.20;;;;;;8360934;28;19963;-74
2023/08/07 00:07:19;;;;;;;;;;;22.90;59.30;;;;;;8343006;28;19913;-74
2023/08/07 00:11:20;;;;;;;;;;;22.90;59.50;;;;;;8382461;28;20344;-74
2023/08/07 00:15:20;;;;;;;;;;;22.90;59.30;;;;;;8359370;28;19912;-74
2023/08/07 00:19:21;;;;;;;;;;;22.80;59.30;;;;;;8393309;28;19970;-74
2023/08/07 00:23:21;;;;;;;;;;;22.80;59.30;;;;;;8393422;28;19913;-74
2023/08/07 00:27:22;;;;;;;;;;;22.80;59.30;;;;;;8375039;28;19919;-75
2023/08/07 00:31:22;;;;;;;;;;;22.80;59.30;;;;;;8392846;28;19913;-74
2023/08/07 00:35:23;;;;;;;;;;;22.80;59.30;;;;;;8374843;28;19915;-74
2023/08/07 00:39:24;;;;;;;;;;;22.80;59.40;;;;;;8375795;28;19912;-75
2023/08/07 00:43:24;;;;;;;;;;;22.80;59.30;;;;;;8392982;28;19979;-74
2023/08/07 00:47:25;;;;;;;;;;;22.70;59.30;;;;;;8358593;28;19939;-75
2023/08/07 00:51:26;;;;;;;;;;;22.70;59.40;;;;;;8392852;28;19920;-74
2023/08/07 00:55:27;;;;;;;;;;;22.70;59.40;;;;;;8392641;28;19916;-74
2023/08/07 00:59:28;;;;;;;;;;;22.70;59.40;;;;;;8392942;28;20163;-74
2023/08/07 01:03:28;;;;;;;;;;;22.70;59.40;;;;;;8392949;28;19913;-75
2023/08/07 01:07:29;;;;;;;;;;;22.70;59.40;;;;;;8375095;28;19924;-74
2023/08/07 01:11:45;;;;;;;;;;;22.70;59.40;;;;;;8374364;28;20023;-74
2023/08/07 01:15:47;;;;;;;;;;;22.70;59.40;;;;;;8393368;28;19943;-74
2023/08/07 01:19:49;;;;;;;;;;;22.70;59.40;;;;;;8374696;28;19913;-75
2023/08/07 01:23:50;;;;;;;;;;;22.70;59.40;;;;;;8392431;28;19915;-74
2023/08/07 01:28:15;;;;;;;;;;;22.70;59.40;;;;;;8392323;28;19913;-75
2023/08/07 01:32:19;;;;;;;;;;;22.60;59.40;;;;;;8392888;28;20424;-74
2023/08/07 01:36:20;;;;;;;;;;;22.60;59.40;;;;;;8394141;28;19916;-74
2023/08/07 01:40:21;;;;;;;;;;;22.60;59.30;;;;;;8359303;28;19912;-74
2023/08/07 01:44:22;;;;;;;;;;;22.60;59.30;;;;;;8396283;28;19988;-74
2023/08/07 01:48:22;;;;;;;;;;;22.60;59.40;;;;;;8400068;28;19913;-74
2023/08/07 01:52:23;;;;;;;;;;;22.60;59.30;;;;;;8382932;28;20010;-74
2023/08/07 01:56:23;;;;;;;;;;;22.60;59.40;;;;;;8382607;28;19912;-74
2023/08/07 02:00:24;;;;;;;;;;;22.60;59.30;;;;;;8383254;28;19916;-74
2023/08/07 02:04:25;;;;;;;;;;;22.60;59.40;;;;;;8415985;28;19913;-73
2023/08/07 02:08:25;;;;;;;;;;;22.60;59.40;;;;;;8424260;28;19979;-75
2023/08/07 02:12:27;;;;;;;;;;;22.60;59.40;;;;;;8386948;28;19929;-74
2023/08/07 02:16:28;;;;;;;;;;;22.60;59.40;;;;;;8401551;28;20467;-74
2023/08/07 02:20:28;;;;;;;;;;;22.50;59.40;;;;;;8388147;28;19957;-74
2023/08/07 02:24:29;;;;;;;;;;;22.60;59.40;;;;;;8404254;28;19939;-73
2023/08/07 02:28:29;;;;;;;;;;;22.50;59.40;;;;;;8379540;28;19913;-74
2023/08/07 02:32:30;;;;;;;;;;;22.50;59.30;;;;;;8363759;28;19921;-74
2023/08/07 02:36:30;;;;;;;;;;;22.60;59.40;;;;;;8364337;28;20375;-74
2023/08/07 02:40:31;;;;;;;;;;;22.60;59.40;;;;;;8365209;28;19913;-75
2023/08/07 02:44:31;;;;;;;;;;;22.60;59.40;;;;;;8357174;28;19932;-74
2023/08/07 02:48:32;;;;;;;;;;;22.60;59.40;;;;;;8362352;28;19913;-74
2023/08/07 02:52:32;;;;;;;;;;;22.50;59.30;;;;;;8363581;28;19917;-74
2023/08/07 02:56:33;;;;;;;;;;;22.50;59.30;;;;;;8328068;28;20366;-75
2023/08/07 03:00:34;;;;;;;;;;;22.60;59.30;;;;;;8345445;28;20278;-75
2023/08/07 03:04:35;;;;;;;;;;;22.50;59.30;;;;;;8362244;28;20382;-75
2023/08/07 03:08:35;;;;;;;;;;;22.60;59.40;;;;;;8362416;28;20558;-75
2023/08/07 03:12:37;;;;;;;;;;;22.50;59.30;;;;;;8362350;28;19972;-75
2023/08/07 03:16:38;;;;;;;;;;;22.50;59.30;;;;;;8363648;28;19920;-75
2023/08/07 03:20:38;;;;;;;;;;;22.50;59.40;;;;;;8363158;28;20016;-75
2023/08/07 03:24:39;;;;;;;;;;;22.50;59.40;;;;;;8362111;28;20003;-74
2023/08/07 03:28:39;;;;;;;;;;;22.50;59.40;;;;;;8362819;28;19920;-75
2023/08/07 03:32:41;;;;;;;;;;;22.50;59.40;;;;;;8361811;28;20128;-74
2023/08/07 03:36:42;;;;;;;;;;;22.50;59.40;;;;;;8361983;28;19939;-74
2023/08/07 03:40:42;;;;;;;;;;;22.50;59.40;;;;;;8362043;28;19913;-74
2023/08/07 03:44:43;;;;;;;;;;;22.50;59.40;;;;;;8362000;28;19909;-75
2023/08/07 03:48:43;;;;;;;;;;;22.50;59.30;;;;;;8361433;28;19920;-74
2023/08/07 03:52:44;;;;;;;;;;;22.50;59.30;;;;;;8343327;28;19924;-74
2023/08/07 03:56:46;;;;;;;;;;;22.50;59.30;;;;;;8360515;28;19913;-75
2023/08/07 04:00:46;;;;;;;;;;;22.50;59.30;;;;;;8343198;28;20008;-75
2023/08/07 04:04:47;;;;;;;;;;;22.50;59.30;;;;;;8359829;28;19912;-74
2023/08/07 04:08:48;;;;;;;;;;;22.50;59.30;;;;;;8326429;28;19916;-74
2023/08/07 04:12:49;;;;;;;;;;;22.40;59.30;;;;;;8393979;28;19939;-74
2023/08/07 04:16:50;;;;;;;;;;;22.50;59.30;;;;;;8375939;28;19917;-74
2023/08/07 04:20:55;;;;;;;;;;;22.50;59.30;;;;;;8393898;28;19916;-74
2023/08/07 04:24:55;;;;;;;;;;;22.50;59.30;;;;;;8393181;28;19971;-75
2023/08/07 04:28:56;;;;;;;;;;;22.50;59.30;;;;;;8393459;28;19921;-75
2023/08/07 04:32:56;;;;;;;;;;;22.50;59.30;;;;;;8393338;28;19920;-75
2023/08/07 04:36:57;;;;;;;;;;;22.40;59.80;;;;;;8393329;28;20289;-74
2023/08/07 04:40:57;;;;;;;;;;;22.40;59.40;;;;;;8393587;28;19920;-75
2023/08/07 04:44:58;;;;;;;;;;;22.40;59.40;;;;;;8393160;28;19912;-74
2023/08/07 04:49:00;;;;;;;;;;;22.50;59.40;;;;;;8374964;28;19913;-75
2023/08/07 04:53:01;;;;;;;;;;;22.50;59.40;;;;;;8392990;28;20155;-75
2023/08/07 04:57:02;;;;;;;;;;;22.40;59.30;;;;;;8392767;28;19913;-74
2023/08/07 05:01:03;;;;;;;;;;;22.40;59.90;;;;;;8375139;28;19924;-74
2023/08/07 05:05:04;;;;;;;;;;;22.40;59.30;;;;;;8374911;28;19912;-75
2023/08/07 05:09:04;;;;;;;;;;;22.50;59.30;;;;;;8392944;28;20371;-74
2023/08/07 05:13:05;;;;;;;;;;;22.50;59.30;;;;;;8374588;28;20290;-74
2023/08/07 05:17:05;;;;;;;;;;;22.40;59.30;;;;;;8392815;28;19921;-74
2023/08/07 05:21:08;;;;;;;;;;;22.50;59.30;;;;;;8380739;28;19924;-75
2023/08/07 05:25:09;;;;;;;;;;;22.50;59.30;;;;;;8398402;28;19956;-75
2023/08/07 05:29:09;;;;;;;;;;;22.40;59.30;;;;;;8380896;28;19927;-74
2023/08/07 05:33:10;;;;;;;;;;;22.50;59.30;;;;;;8380626;28;20019;-75
2023/08/07 05:37:10;;;;;;;;;;;22.50;59.30;;;;;;8398314;28;20333;-74
2023/08/07 05:41:11;;;;;;;;;;;22.40;59.80;;;;;;8398481;28;19912;-74
2023/08/07 05:45:12;;;;;;;;;;;22.40;59.30;;;;;;8398479;28;20326;-75
2023/08/07 05:49:12;;;;;;;;;;;22.40;59.40;;;;;;8380716;28;19945;-75
2023/08/07 05:53:13;;;;;;;;;;;22.40;59.40;;;;;;8380521;28;19923;-74
2023/08/07 05:57:13;;;;;;;;;;;22.40;59.40;;;;;;8397584;28;19912;-75
2023/08/07 06:01:16;;;;;;;;;;;22.40;59.30;;;;;;8397823;28;19912;-74
2023/08/07 06:05:17;;;;;;;;;;;22.40;59.40;;;;;;8380157;28;19935;-74
2023/08/07 06:09:17;;;;;;;;;;;22.40;59.30;;;;;;8379851;28;19999;-74
2023/08/07 06:13:18;;;;;;;;;;;22.40;59.30;;;;;;8379567;28;20381;-74
2023/08/07 06:17:18;;;;;;;;;;;22.40;59.30;;;;;;8397533;28;19956;-74
2023/08/07 06:21:20;;;;;;;;;;;22.40;59.30;;;;;;8379701;28;19912;-74
2023/08/07 06:25:20;;;;;;;;;;;22.40;59.30;;;;;;8396605;28;19916;-74
2023/08/07 06:29:21;;;;;;;;;;;22.40;59.30;;;;;;8397040;28;19917;-74
2023/08/07 06:33:21;;;;;;;;;;;22.40;59.30;;;;;;8396227;28;19916;-74
2023/08/07 06:37:22;;;;;;;;;;;22.40;59.30;;;;;;8378960;28;19920;-75
2023/08/07 06:41:23;;;;;;;;;;;22.40;59.30;;;;;;8378992;28;19920;-74
2023/08/07 06:45:23;;;;;;;;;;;22.40;59.30;;;;;;8378719;28;19920;-75
2023/08/07 06:49:24;;;;;;;;;;;22.40;59.30;;;;;;8396430;28;19913;-74
2023/08/07 06:53:25;;;;;;;;;;;22.40;59.30;;;;;;8378167;28;19947;-74
2023/08/07 06:57:25;;;;;;;;;;;22.40;59.40;;;;;;8395627;28;19920;-74
2023/08/07 07:01:26;;;;;;;;;;;22.40;59.40;;;;;;8378103;28;20405;-74
2023/08/07 07:05:26;;;;;;;;;;;22.40;59.50;;;;;;8395886;28;19923;-74
2023/08/07 07:09:28;;;;;;;;;;;22.40;59.50;;;;;;8395629;28;20011;-74
2023/08/07 07:13:29;;;;;;;;;;;22.40;59.40;;;;;;8395501;28;20409;-74
2023/08/07 07:17:29;;;;;;;;;;;22.40;59.40;;;;;;8361152;28;20544;-74
2023/08/07 07:21:30;;;;;;;;;;;22.40;59.30;;;;;;8395742;28;19955;-75
2023/08/07 07:25:30;;;;;;;;;;;22.40;59.30;;;;;;8394834;28;19912;-74
2023/08/07 07:29:31;;;;;;;;;;;22.40;59.30;;;;;;8377101;28;19930;-74
2023/08/07 07:33:31;;;;;;;;;;;22.40;59.30;;;;;;8394729;28;19917;-74
2023/08/07 07:37:32;;;;;;;;;;;22.40;59.30;;;;;;8394846;28;19916;-74
2023/08/07 07:41:33;;;;;;;;;;;22.40;59.30;;;;;;8359901;28;19913;-74
2023/08/07 07:45:35;;;;;;;;;;;22.50;59.30;;;;;;8359962;28;20437;-74
2023/08/07 07:49:36;;;;;;;;;;;22.40;59.30;;;;;;8394479;28;19955;-74
2023/08/07 07:53:36;;;;;;;;;;;22.50;59.30;;;;;;8394156;28;19920;-75
2023/08/07 07:57:37;;;;;;;;;;;22.50;59.30;;;;;;8375591;28;20011;-74
2023/08/07 08:01:37;;;;;;;;;;;22.50;59.30;;;;;;8376393;28;19966;-74
2023/08/07 08:05:38;;;;;;;;;;;22.40;59.30;;;;;;8376067;28;19958;-75
2023/08/07 08:09:39;;;;;;;;;;;22.40;59.30;;;;;;8393896;28;20217;-74
2023/08/07 08:13:41;;;;;;;;;;;22.40;59.40;;;;;;8393707;28;19931;-75
2023/08/07 08:17:41;;;;;;;;;;;22.40;59.40;;;;;;8394253;28;19913;-74
2023/08/07 08:21:42;;;;;;;;;;;22.40;59.40;;;;;;8394130;28;19913;-75
2023/08/07 08:25:43;;;;;;;;;;;22.40;59.40;;;;;;8375089;28;19958;-74
2023/08/07 08:29:43;;;;;;;;;;;22.40;59.60;;;;;;8393392;28;20484;-74
2023/08/07 08:33:44;;;;;;;;;;;22.40;59.40;;;;;;8375478;28;19916;-74
2023/08/07 08:37:44;;;;;;;;;;;22.40;59.30;;;;;;8393509;28;19912;-74
2023/08/07 08:41:46;;;;;;;;;;;22.40;59.30;;;;;;8393845;28;20012;-75
2023/08/07 08:45:46;;;;;;;;;;;22.40;59.30;;;;;;8393435;28;19909;-75
2023/08/07 08:49:49;;;;;;;;;;;22.50;59.40;;;;;;8393015;28;19917;-75
2023/08/07 08:53:51;;;;;;;;;;;22.40;59.30;;;;;;8394911;28;19912;-74
2023/08/07 08:57:53;;;;;;;;;;;22.50;59.40;;;;;;8364998;28;20389;-74
2023/08/07 09:01:54;;;;;;;;;;;22.50;59.40;;;;;;8381875;28;19915;-75
2023/08/07 09:05:57;;;;;;;;;;;22.50;59.40;;;;;;8381583;28;19913;-74
2023/08/07 09:09:58;;;;;;;;;;;22.40;59.30;;;;;;8399471;28;20001;-74
2023/08/07 09:14:00;;;;;;;;;;;22.40;59.30;;;;;;8399391;28;19912;-74
2023/08/07 09:18:03;;;;;;;;;;;22.40;59.40;;;;;;8399409;28;19912;-74
2023/08/07 09:22:04;;;;;;;;;;;22.40;59.40;;;;;;8399369;28;19908;-74
2023/08/07 09:26:05;;;;;;;;;;;22.30;59.40;;;;;;8398931;28;19913;-75
2023/08/07 09:30:08;;;;;;;;;;;22.40;59.50;;;;;;8381232;28;19908;-74
2023/08/07 09:34:08;;;;;;;;;;;22.40;59.50;;;;;;8400313;28;19909;-74
2023/08/07 09:38:09;;;;;;;;;;;22.40;59.40;;;;;;8382732;28;19960;-74
2023/08/07 09:42:16;;;;;;;;;;;22.40;59.40;;;;;;8400378;28;20016;-74
2023/08/07 09:46:17;;;;;;;;;;;22.40;59.40;;;;;;8382373;28;19920;-74
2023/08/07 09:50:18;;;;;;;;;;;22.40;59.40;;;;;;8382852;28;19962;-74
2023/08/07 09:54:18;;;;;;;;;;;22.40;59.40;;;;;;8382970;28;20357;-75
2023/08/07 09:58:19;;;;;;;;;;;22.50;59.40;;;;;;8400546;28;20297;-74
2023/08/07 10:02:20;;;;;;;;;;;22.50;59.40;;;;;;8407665;28;19915;-74
2023/08/07 10:06:21;;;;;;;;;;;22.50;59.40;;;;;;8388788;28;19913;-75
2023/08/07 10:10:21;;;;;;;;;;;22.50;59.40;;;;;;8424268;28;19931;-74
2023/08/07 10:14:22;;;;;;;;;;;22.40;59.40;;;;;;8429325;28;19901;-74
2023/08/07 10:18:23;;;;;;;;;;;22.40;59.40;;;;;;8422124;28;19913;-73
2023/08/07 10:22:25;;;;;;;;;;;22.50;59.40;;;;;;8438117;28;19908;-74
2023/08/07 10:26:26;;;;;;;;;;;22.40;59.40;;;;;;8438985;28;19911;-73
2023/08/07 10:30:27;;;;;;;;;;;22.40;59.40;;;;;;8386242;28;19925;-74
2023/08/07 10:34:33;;;;;;;;;;;22.40;59.50;;;;;;8380601;28;19916;-75
2023/08/07 10:38:35;;;;;;;;;;;22.40;59.50;;;;;;8398638;28;19936;-74
2023/08/07 10:42:54;;;;;;;;;;;22.40;59.50;;;;;;8379311;28;19908;-74
2023/08/07 10:46:56;;;;;;;;;;;22.40;59.50;;;;;;8378728;28;20286;-74
2023/08/07 10:50:57;;;;;;;;;;;22.40;59.50;;;;;;8378557;28;19913;-75
2023/08/07 10:54:58;;;;;;;;;;;22.50;59.50;;;;;;8362056;28;19917;-74
2023/08/07 10:59:07;;;;;;;;;;;22.50;59.50;;;;;;8378834;28;19916;-74
2023/08/07 11:03:08;;;;;;;;;;;22.40;59.50;;;;;;8378889;28;20015;-75
2023/08/07 11:07:08;;;;;;;;;;;22.40;59.50;;;;;;8396748;28;19979;-74
2023/08/07 11:11:09;;;;;;;;;;;22.40;59.50;;;;;;8397121;28;20394;-74
2023/08/07 11:15:14;;;;;;;;;;;22.50;59.50;;;;;;8361982;28;19913;-74
2023/08/07 11:19:15;;;;;;;;;;;22.50;59.50;;;;;;8377953;28;20358;-74
2023/08/07 11:23:22;;;;;;;;;;;22.40;59.50;;;;;;8396146;28;19919;-74
2023/08/07 11:27:23;;;;;;;;;;;22.40;59.50;;;;;;8395172;28;19915;-74
2023/08/07 11:31:24;;;;;;;;;;;22.40;59.50;;;;;;8377149;28;19956;-74
2023/08/07 11:35:25;;;;;;;;;;;22.40;59.50;;;;;;8376639;28;19913;-74
2023/08/07 11:39:26;;;;;;;;;;;22.40;59.50;;;;;;8394921;28;19912;-74
2023/08/07 11:43:27;;;;;;;;;;;22.40;59.50;;;;;;8376775;28;20285;-74
2023/08/07 11:47:27;;;;;;;;;;;22.40;59.60;;;;;;8376689;28;20384;-74
2023/08/07 11:51:28;;;;;;;;;;;22.40;59.60;;;;;;8394312;28;19920;-74
2023/08/07 11:55:30;;;;;;;;;;;22.40;59.60;;;;;;8376050;28;19995;-74
2023/08/07 11:59:30;;;;;;;;;;;22.30;59.70;;;;;;8394346;28;19912;-74
2023/08/07 12:03:33;;;;;;;;;;;22.40;59.60;;;;;;8359462;28;19923;-75
2023/08/07 12:07:33;;;;;;;;;;;22.40;59.60;;;;;;8376004;28;19915;-74
2023/08/07 12:11:35;;;;;;;;;;;22.40;59.50;;;;;;8394057;28;19924;-74
2023/08/07 12:15:37;;;;;;;;;;;22.40;59.50;;;;;;8375908;28;19908;-75
2023/08/07 12:19:38;;;;;;;;;;;22.40;59.50;;;;;;8394284;28;19919;-74
2023/08/07 12:23:39;;;;;;;;;;;22.40;59.50;;;;;;8358903;28;19919;-74
2023/08/07 12:27:39;;;;;;;;;;;22.40;59.50;;;;;;8374607;28;19912;-74
2023/08/07 12:31:40;;;;;;;;;;;22.40;59.50;;;;;;8375692;28;20365;-74
2023/08/07 12:35:41;;;;;;;;;;;22.40;59.50;;;;;;8375469;28;19924;-75
2023/08/07 12:39:42;;;;;;;;;;;22.40;59.50;;;;;;8375426;28;20378;-74
2023/08/07 12:43:42;;;;;;;;;;;22.40;59.50;;;;;;8393176;28;20007;-75
2023/08/07 12:47:43;;;;;;;;;;;22.40;59.40;;;;;;8393108;28;20366;-74
2023/08/07 12:51:43;;;;;;;;;;;22.40;59.50;;;;;;8375114;28;20409;-74
2023/08/07 12:55:44;;;;;;;;;;;22.40;59.50;;;;;;8374621;28;20365;-74
2023/08/07 12:59:44;;;;;;;;;;;22.40;59.50;;;;;;8358629;28;19912;-75
2023/08/07 13:03:45;;;;;;;;;;;22.40;59.60;;;;;;8374985;28;19913;-74
2023/08/07 13:07:46;;;;;;;;;;;22.30;59.50;;;;;;8392904;28;20297;-74
2023/08/07 13:11:46;;;;;;;;;;;22.40;59.60;;;;;;8392711;28;19924;-75
2023/08/07 13:15:47;;;;;;;;;;;22.40;59.60;;;;;;8374672;28;19916;-75
2023/08/07 13:19:47;;;;;;;;;;;22.40;59.50;;;;;;8374925;28;20263;-75
2023/08/07 13:23:48;;;;;;;;;;;22.40;59.50;;;;;;8374982;28;19912;-74
2023/08/07 13:27:49;;;;;;;;;;;22.40;59.50;;;;;;8392070;28;19970;-75
2023/08/07 13:31:49;;;;;;;;;;;22.40;60.00;;;;;;8392376;28;20274;-75
2023/08/07 13:35:50;;;;;;;;;;;22.40;59.40;;;;;;8392536;28;19912;-74
2023/08/07 13:39:54;;;;;;;;;;;22.40;59.50;;;;;;8393229;28;21485;-74
2023/08/07 13:43:54;;;;;;;;;;;22.40;59.50;;;;;;8380770;28;19908;-75
2023/08/07 13:47:55;;;;;;;;;;;22.40;59.40;;;;;;8398233;28;19912;-75
2023/08/07 13:51:56;;;;;;;;;;;22.40;59.50;;;;;;8380294;28;19916;-74
2023/08/07 13:55:56;;;;;;;;;;;22.40;59.50;;;;;;8379932;28;19916;-74
2023/08/07 13:59:57;;;;;;;;;;;22.40;59.40;;;;;;8379902;28;19924;-74
2023/08/07 14:03:57;;;;;;;;;;;22.40;59.40;;;;;;8398193;28;20369;-75
2023/08/07 14:07:58;;;;;;;;;;;22.40;59.50;;;;;;8380518;28;19912;-74
2023/08/07 14:11:59;;;;;;;;;;;22.30;59.50;;;;;;8346332;28;19924;-74
2023/08/07 14:15:59;;;;;;;;;;;22.40;59.50;;;;;;8364469;28;20290;-74
2023/08/07 14:20:00;;;;;;;;;;;22.40;59.50;;;;;;8364445;28;19924;-74
2023/08/07 14:24:01;;;;;;;;;;;22.40;59.50;;;;;;8346491;28;19913;-75
2023/08/07 14:28:01;;;;;;;;;;;22.40;59.50;;;;;;8363617;28;20375;-74
2023/08/07 14:32:02;;;;;;;;;;;22.40;59.50;;;;;;8345995;28;20261;-74
2023/08/07 14:36:02;;;;;;;;;;;22.40;59.50;;;;;;8364539;28;20405;-74
2023/08/07 14:40:03;;;;;;;;;;;22.40;59.50;;;;;;8363775;28;19915;-74
2023/08/07 14:44:04;;;;;;;;;;;22.40;59.50;;;;;;8345400;28;20363;-74
2023/08/07 14:48:05;;;;;;;;;;;22.40;59.50;;;;;;8363566;28;19959;-74
2023/08/07 14:52:07;;;;;;;;;;;22.40;59.50;;;;;;8361141;28;19916;-75
2023/08/07 14:56:08;;;;;;;;;;;22.40;59.50;;;;;;8328332;28;19967;-75
2023/08/07 15:00:10;;;;;;;;;;;22.40;59.50;;;;;;8362936;28;20263;-74
2023/08/07 15:04:10;;;;;;;;;;;22.40;59.50;;;;;;8345127;28;19913;-74
2023/08/07 15:08:11;;;;;;;;;;;22.40;59.50;;;;;;8344967;28;19916;-74
2023/08/07 15:12:11;;;;;;;;;;;22.40;59.60;;;;;;8391366;28;20029;-74
2023/08/07 15:16:12;;;;;;;;;;;22.40;59.60;;;;;;8395690;28;19956;-74
2023/08/07 15:20:13;;;;;;;;;;;22.40;59.60;;;;;;8395444;28;20341;-74
2023/08/07 15:24:13;;;;;;;;;;;22.40;59.60;;;;;;8395255;28;19913;-74
2023/08/07 15:28:14;;;;;;;;;;;22.30;59.60;;;;;;8394721;28;19913;-74
2023/08/07 15:32:18;;;;;;;;;;;22.40;59.60;;;;;;8377286;28;19948;-74
2023/08/07 15:36:19;;;;;;;;;;;22.40;59.60;;;;;;8394814;28;20275;-74
2023/08/07 15:40:19;;;;;;;;;;;22.40;59.60;;;;;;8395349;28;19952;-74
2023/08/07 15:44:20;;;;;;;;;;;22.40;59.60;;;;;;8376832;28;19913;-74
2023/08/07 15:48:20;;;;;;;;;;;22.40;59.60;;;;;;8394534;28;19912;-75
2023/08/07 15:52:21;;;;;;;;;;;22.40;59.60;;;;;;8376427;28;19923;-74
2023/08/07 15:56:22;;;;;;;;;;;22.40;59.70;;;;;;8359832;28;19920;-75
2023/08/07 16:00:22;;;;;;;;;;;22.40;59.60;;;;;;8359749;28;19961;-74
2023/08/07 16:04:23;;;;;;;;;;;22.30;59.60;;;;;;8375933;28;19913;-75
2023/08/07 16:08:23;;;;;;;;;;;22.40;59.70;;;;;;8376303;28;19944;-74
2023/08/07 16:12:24;;;;;;;;;;;22.40;59.60;;;;;;8342690;28;19924;-75
2023/08/07 16:16:24;;;;;;;;;;;22.40;59.70;;;;;;8342900;28;19919;-74
2023/08/07 16:20:25;;;;;;;;;;;22.40;59.70;;;;;;8360872;28;19920;-74
2023/08/07 16:24:25;;;;;;;;;;;22.40;59.60;;;;;;8342335;28;19920;-74
2023/08/07 16:28:26;;;;;;;;;;;22.40;59.60;;;;;;8326258;28;20408;-74
2023/08/07 16:32:27;;;;;;;;;;;22.40;59.70;;;;;;8360485;28;19917;-75
2023/08/07 16:36:27;;;;;;;;;;;22.40;59.70;;;;;;8360244;28;19917;-74
2023/08/07 16:40:28;;;;;;;;;;;22.40;59.70;;;;;;8342530;28;19923;-75
2023/08/07 16:44:29;;;;;;;;;;;22.40;59.70;;;;;;8360262;28;19909;-74
2023/08/07 16:48:30;;;;;;;;;;;22.40;59.70;;;;;;8360529;28;19959;-74
2023/08/07 16:52:31;;;;;;;;;;;22.40;59.70;;;;;;8360419;28;19943;-75
2023/08/07 16:56:31;;;;;;;;;;;22.40;59.70;;;;;;8359458;28;19991;-74
2023/08/07 17:00:32;;;;;;;;;;;22.30;59.70;;;;;;8342838;28;20420;-74
2023/08/07 17:04:33;;;;;;;;;;;22.40;59.70;;;;;;8359805;28;19948;-74
2023/08/07 17:08:33;;;;;;;;;;;22.40;59.70;;;;;;8360076;28;19912;-74
2023/08/07 17:12:34;;;;;;;;;;;22.40;59.60;;;;;;8358450;28;20058;-74
2023/08/07 17:16:34;;;;;;;;;;;22.40;59.60;;;;;;8364543;28;20068;-74
2023/08/07 17:20:35;;;;;;;;;;;22.40;59.70;;;;;;8366304;28;19913;-75
2023/08/07 17:24:35;;;;;;;;;;;22.30;59.60;;;;;;8365829;28;19916;-75
2023/08/07 17:28:36;;;;;;;;;;;22.40;59.70;;;;;;8366032;28;20079;-74
2023/08/07 17:32:37;;;;;;;;;;;22.40;59.70;;;;;;8366304;28;19916;-74
2023/08/07 17:36:37;;;;;;;;;;;22.30;59.70;;;;;;8367311;28;20341;-74
2023/08/07 17:40:38;;;;;;;;;;;22.30;59.70;;;;;;8366076;28;19923;-75
2023/08/07 17:44:38;;;;;;;;;;;22.30;59.80;;;;;;8349100;28;19916;-75
2023/08/07 17:48:44;;;;;;;;;;;22.30;59.80;;;;;;8353945;28;19913;-74
2023/08/07 17:52:44;;;;;;;;;;;22.30;59.80;;;;;;8362353;28;19921;-74
2023/08/07 17:56:46;;;;;;;;;;;22.30;59.80;;;;;;8370411;28;19967;-74
2023/08/07 18:00:47;;;;;;;;;;;22.30;59.80;;;;;;8366653;28;19913;-74
2023/08/07 18:04:47;;;;;;;;;;;22.30;59.70;;;;;;8392394;28;20453;-75
2023/08/07 18:08:48;;;;;;;;;;;22.30;59.80;;;;;;8391575;28;19952;-74
2023/08/07 18:12:48;;;;;;;;;;;22.30;59.70;;;;;;8427229;28;19971;-74
2023/08/07 18:16:49;;;;;;;;;;;22.40;59.80;;;;;;8440098;28;19916;-74
2023/08/07 18:20:50;;;;;;;;;;;22.30;59.70;;;;;;8406148;28;19907;-74
2023/08/07 18:24:50;;;;;;;;;;;22.30;59.80;;;;;;8422192;28;19900;-73
2023/08/07 18:28:51;;;;;;;;;;;22.30;59.80;;;;;;8413346;28;19939;-74
2023/08/07 18:32:51;;;;;;;;;;;22.30;59.80;;;;;;8380893;28;19920;-75
2023/08/07 18:36:52;;;;;;;;;;;22.30;59.80;;;;;;8398359;28;20424;-74
2023/08/07 18:40:53;;;;;;;;;;;22.40;59.80;;;;;;8380132;28;19963;-74
2023/08/07 18:44:53;;;;;;;;;;;22.30;59.80;;;;;;8396944;28;19919;-74
2023/08/07 18:48:54;;;;;;;;;;;22.30;59.70;;;;;;8396856;28;19962;-74
2023/08/07 18:52:55;;;;;;;;;;;22.30;59.80;;;;;;8396788;28;19995;-75
2023/08/07 18:56:55;;;;;;;;;;;22.30;59.80;;;;;;8396357;28;19959;-74
2023/08/07 19:00:56;;;;;;;;;;;22.30;59.80;;;;;;8396796;28;19915;-74
2023/08/07 19:04:56;;;;;;;;;;;22.30;59.80;;;;;;8379106;28;20361;-74
2023/08/07 19:08:57;;;;;;;;;;;22.30;59.90;;;;;;8396826;28;19909;-74
2023/08/07 19:12:57;;;;;;;;;;;22.30;59.80;;;;;;8396906;28;19920;-75
2023/08/07 19:16:58;;;;;;;;;;;22.30;59.80;;;;;;8397011;28;19916;-74
2023/08/07 19:21:00;;;;;;;;;;;22.30;59.80;;;;;;8396370;28;20262;-74
2023/08/07 19:25:01;;;;;;;;;;;22.30;59.90;;;;;;8361928;28;19913;-74
2023/08/07 19:29:01;;;;;;;;;;;22.30;59.80;;;;;;8395413;28;20007;-74
2023/08/07 19:33:02;;;;;;;;;;;22.30;59.80;;;;;;8394811;28;19923;-74
2023/08/07 19:37:03;;;;;;;;;;;22.30;59.80;;;;;;8360139;28;19920;-74
2023/08/07 19:41:04;;;;;;;;;;;22.30;59.80;;;;;;8395069;28;20389;-75
2023/08/07 19:45:05;;;;;;;;;;;22.30;59.80;;;;;;8394696;28;19993;-74
2023/08/07 19:49:05;;;;;;;;;;;22.30;59.80;;;;;;8376669;28;19908;-74
2023/08/07 19:53:06;;;;;;;;;;;22.30;59.80;;;;;;8376459;28;20385;-74
2023/08/07 19:57:07;;;;;;;;;;;22.30;59.80;;;;;;8375958;28;19916;-75
2023/08/07 20:01:07;;;;;;;;;;;22.30;59.80;;;;;;8394485;28;20340;-74
2023/08/07 20:05:09;;;;;;;;;;;22.30;59.80;;;;;;8376387;28;19913;-74
2023/08/07 20:09:09;;;;;;;;;;;22.30;59.90;;;;;;8376073;28;19928;-75
2023/08/07 20:13:10;;;;;;;;;;;22.30;59.90;;;;;;8359448;28;19924;-74
2023/08/07 20:17:10;;;;;;;;;;;22.30;59.90;;;;;;8375879;28;19935;-74
2023/08/07 20:21:12;;;;;;;;;;;22.20;59.80;;;;;;8376221;28;19915;-74
2023/08/07 20:25:12;;;;;;;;;;;22.30;59.80;;;;;;8375352;28;19919;-74
2023/08/07 20:29:13;;;;;;;;;;;22.30;59.80;;;;;;8375967;28;19967;-74
2023/08/07 20:33:14;;;;;;;;;;;22.30;59.80;;;;;;8393627;28;20019;-74
2023/08/07 20:37:14;;;;;;;;;;;22.30;59.80;;;;;;8359501;28;20382;-74
2023/08/07 20:41:15;;;;;;;;;;;22.30;59.80;;;;;;8393459;28;19970;-74
2023/08/07 20:45:16;;;;;;;;;;;22.30;59.80;;;;;;8393686;28;20282;-74
2023/08/07 20:49:16;;;;;;;;;;;22.30;59.70;;;;;;8393095;28;20003;-74
2023/08/07 20:53:17;;;;;;;;;;;22.30;59.80;;;;;;8392131;28;19917;-74
2023/08/07 20:57:17;;;;;;;;;;;22.30;60.50;;;;;;8373287;28;20135;-74
2023/08/07 21:01:18;;;;;;;;;;;22.30;59.80;;;;;;8370907;28;19921;-74
2023/08/07 21:05:18;;;;;;;;;;;22.30;60.20;;;;;;8371056;28;19928;-74
2023/08/07 21:09:19;;;;;;;;;;;22.30;60.10;;;;;;8370664;28;19929;-74
2023/08/07 21:13:20;;;;;;;;;;;22.30;60.00;;;;;;8353221;28;20437;-75
2023/08/07 21:17:20;;;;;;;;;;;22.30;60.00;;;;;;8370762;28;19913;-74
2023/08/07 21:21:24;;;;;;;;;;;22.30;60.30;;;;;;8370387;28;19928;-75
2023/08/07 21:25:24;;;;;;;;;;;22.40;60.50;;;;;;8369854;28;20373;-74
2023/08/07 21:29:25;;;;;;;;;;;22.40;60.30;;;;;;8335717;28;19975;-74
2023/08/07 21:33:26;;;;;;;;;;;22.40;60.50;;;;;;8352714;28;19925;-74
2023/08/07 21:37:30;;;;;;;;;;;22.40;60.20;;;;;;8352233;28;20408;-74
2023/08/07 21:41:31;;;;;;;;;;;22.40;60.70;;;;;;8352606;28;19927;-74
2023/08/07 21:45:32;;;;;;;;;;;22.40;61.00;;;;;;8370629;28;19913;-75
2023/08/07 21:49:33;;;;;;;;;;;22.40;60.30;;;;;;8352251;28;19917;-74
2023/08/07 21:53:34;;;;;;;;;;;22.40;60.20;;;;;;8351656;28;19924;-74
2023/08/07 21:57:34;;;;;;;;;;;22.50;60.60;;;;;;8369863;28;20018;-74
2023/08/07 22:01:36;;;;;;;;;;;22.50;61.00;;;;;;8355085;28;19913;-73
2023/08/07 22:05:36;;;;;;;;;;;22.50;60.70;;;;;;8375423;28;19921;-74
2023/08/07 22:09:37;;;;;;;;;;;22.40;60.30;;;;;;8375244;28;19929;-74
2023/08/07 22:13:37;;;;;;;;;;;22.50;60.50;;;;;;8375322;28;20163;-74
2023/08/07 22:17:38;;;;;;;;;;;22.40;60.50;;;;;;8357375;28;20362;-74
2023/08/07 22:21:39;;;;;;;;;;;22.50;60.80;;;;;;8375205;28;19982;-73
2023/08/07 22:25:40;;;;;;;;;;;22.50;60.50;;;;;;8374408;28;20409;-74
2023/08/07 22:29:41;;;;;;;;;;;22.40;60.40;;;;;;8373725;28;20298;-74
2023/08/07 22:33:41;;;;;;;;;;;22.50;60.30;;;;;;8356720;28;19924;-74
2023/08/07 22:37:42;;;;;;;;;;;22.50;60.80;;;;;;8356577;28;19913;-73
2023/08/07 22:41:42;;;;;;;;;;;22.40;62.30;;;;;;8374609;28;19913;-74
2023/08/07 22:45:43;;;;;;;;;;;22.50;63.80;;;;;;8374694;28;19963;-74
2023/08/07 22:49:44;;;;;;;;;;;22.50;63.20;;;;;;8356718;28;20325;-74
2023/08/07 22:53:44;;;;;;;;;;;22.50;63.00;;;;;;8373796;28;20288;-74
2023/08/07 22:57:45;;;;;;;;;;;22.50;62.60;;;;;;8339488;28;19912;-73
2023/08/07 23:01:45;;;;;;;;;;;22.50;62.00;;;;;;8356263;28;20047;-73
2023/08/07 23:05:46;;;;;;;;;;;22.50;62.00;;;;;;8355752;28;19912;-74
2023/08/07 23:09:46;;;;;;;;;;;22.50;61.90;;;;;;8355182;28;19924;-74
2023/08/07 23:13:47;;;;;;;;;;;22.50;61.80;;;;;;8372495;28;19920;-75
2023/08/07 23:17:47;;;;;;;;;;;22.50;61.50;;;;;;8355655;28;19921;-73
2023/08/07 23:21:48;;;;;;;;;;;22.50;61.50;;;;;;8372182;28;20420;-74